Аэропорт: Байкал. Улан-Удэ

ICAO: UIUU

METAR:
2024-06-22 10:30:00
UIUU 221030Z 02008MPS 9999 FEW050 16/10 Q1013 R08/CLRD60 NOSIG RMK QFE714/0953
TAF:
2024-06-22 08:00:00
TAF UIUU 220800Z 2209/2309 34008G14MPS 9999 SCT040CB 
  TEMPO 2209/2212 02003G08MPS 
  BECMG 2212/2214 03003MPS